Time;durP1;ratioP1;P1;durP2;ratioP2;P2;SDS_P1;SDS_P2;PMS_P1;PMS_P2;Temp;Humidity;BMP_temperature;BMP_pressure;BME280_temperature;BME280_humidity;BME280_pressure;Samples;Min_cycle;Max_cycle;Signal;HPM_P1;HPM_P2
2023/02/26 00:02:20;;;;;;;13.85;7.65;;;;;;;-4.69;66.68;100101.00;4992024;28;20093;-76
2023/02/26 00:04:46;;;;;;;9.85;6.20;;;;;;;-4.80;66.94;100094.09;4976099;28;20512;-76
2023/02/26 00:07:12;;;;;;;14.68;8.30;;;;;;;-4.68;67.33;100113.16;4993454;28;20050;-77
2023/02/26 00:09:38;;;;;;;13.55;7.65;;;;;;;-4.69;66.94;100103.59;4993691;28;20042;-77
2023/02/26 00:12:04;;;;;;;17.50;7.57;;;;;;;-4.70;67.68;100107.09;4979728;28;20050;-77
2023/02/26 00:14:30;;;;;;;17.90;8.93;;;;;;;-4.68;67.40;100105.31;4979574;28;20054;-77
2023/02/26 00:17:24;;;;;;;21.02;8.43;;;;;;;-4.74;67.70;100100.16;4997307;28;20038;-77
2023/02/26 00:19:50;;;;;;;21.35;9.65;;;;;;;-4.67;67.55;100112.25;4997120;28;20406;-77
2023/02/26 00:22:16;;;;;;;23.08;9.50;;;;;;;-4.57;67.44;100110.47;4997046;28;20054;-77
2023/02/26 00:24:42;;;;;;;13.43;8.20;;;;;;;-4.50;67.44;100114.78;4997183;28;20152;-77
2023/02/26 00:27:10;;;;;;;16.10;7.18;;;;;;;-4.55;67.71;100126.09;4997427;28;20513;-76
2023/02/26 00:29:37;;;;;;;15.98;7.18;;;;;;;-4.48;67.04;100127.81;4963471;28;20034;-78
2023/02/26 00:32:03;;;;;;;14.98;6.60;;;;;;;-4.51;67.09;100127.84;4996931;28;20054;-77
2023/02/26 00:34:30;;;;;;;13.82;6.95;;;;;;;-4.56;66.84;100119.16;4963175;28;20046;-76
2023/02/26 00:37:34;;;;;;;11.07;6.88;;;;;;;-4.42;67.19;100127.78;4963147;28;20100;-77
2023/02/26 00:40:05;;;;;;;14.98;6.50;;;;;;;-4.31;66.89;100120.75;4963170;28;20489;-77
2023/02/26 00:42:31;;;;;;;14.05;6.55;;;;;;;-4.27;66.52;100126.81;4979522;28;20506;-77
2023/02/26 00:44:57;;;;;;;10.38;6.57;;;;;;;-4.38;66.39;100134.72;4963177;28;20520;-76
2023/02/26 00:47:38;;;;;;;10.88;6.63;;;;;;;-4.41;66.01;100139.94;4979132;28;20096;-76
2023/02/26 00:50:18;;;;;;;10.80;6.35;;;;;;;-4.42;66.14;100138.22;4963055;28;20042;-76
2023/02/26 00:52:58;;;;;;;15.00;6.03;;;;;;;-4.34;65.86;100144.25;4979158;28;20557;-76
2023/02/26 00:55:24;;;;;;;10.20;5.38;;;;;;;-4.36;65.89;100134.69;4979119;28;20077;-76
2023/02/26 00:57:50;;;;;;;13.93;6.82;;;;;;;-4.37;65.58;100139.03;4979222;28;20050;-76
2023/02/26 01:00:16;;;;;;;11.30;6.20;;;;;;;-4.39;65.93;100135.59;4996028;28;20053;-76
2023/02/26 01:02:43;;;;;;;10.88;6.57;;;;;;;-4.45;65.99;100133.00;4959171;28;20050;-77
2023/02/26 01:05:10;;;;;;;16.25;6.82;;;;;;;-4.49;66.37;100139.13;4975779;28;20490;-76
2023/02/26 01:08:02;;;;;;;14.88;6.95;;;;;;;-4.50;66.63;100126.97;4959365;28;20046;-76
2023/02/26 01:10:29;;;;;;;15.90;7.07;;;;;;;-4.36;66.31;100127.75;4976015;28;20057;-75
2023/02/26 01:12:55;;;;;;;16.35;7.25;;;;;;;-4.39;66.39;100135.59;4991527;28;20495;-77
2023/02/26 01:15:25;;;;;;;13.48;6.68;;;;;;;-4.39;66.46;100132.97;4976588;28;20046;-76
2023/02/26 01:18:03;;;;;;;15.80;6.55;;;;;;;-4.47;66.77;100126.94;4975360;28;20521;-76
2023/02/26 01:20:41;;;;;;;12.98;6.13;;;;;;;-4.47;66.99;100119.13;4975035;28;20042;-77
2023/02/26 01:23:17;;;;;;;12.93;6.95;;;;;;;-4.55;67.34;100105.22;4958138;28;20053;-77
2023/02/26 01:25:50;;;;;;;12.45;6.40;;;;;;;-4.53;67.31;100112.19;4959461;28;20408;-77
2023/02/26 01:28:17;;;;;;;12.10;7.15;;;;;;;-4.52;67.41;100115.66;4958960;28;20049;-78
2023/02/26 01:30:44;;;;;;;20.05;7.90;;;;;;;-4.40;67.16;100118.19;4958972;28;20038;-77
2023/02/26 01:33:17;;;;;;;11.30;6.82;;;;;;;-4.28;67.45;100115.50;4976272;28;20141;-77
2023/02/26 01:35:51;;;;;;;13.77;7.13;;;;;;;-4.33;67.11;100117.25;4975338;28;20050;-76
2023/02/26 01:38:55;;;;;;;12.38;6.63;;;;;;;-4.37;67.21;100133.81;4975016;28;20054;-76
2023/02/26 01:41:32;;;;;;;11.02;6.00;;;;;;;-4.28;67.34;100138.13;4976217;28;20047;-76
2023/02/26 01:44:26;;;;;;;13.55;5.97;;;;;;;-4.29;67.41;100129.41;4974987;28;20152;-76
2023/02/26 01:47:36;;;;;;;17.02;7.10;;;;;;;-4.32;67.55;100145.13;4959113;28;20098;-76
2023/02/26 01:50:13;;;;;;;17.95;8.05;;;;;;;-4.34;67.77;100139.03;4974403;28;20050;-76
2023/02/26 01:52:49;;;;;;;9.95;5.60;;;;;;;-4.27;67.73;100137.25;4974306;28;20045;-76
2023/02/26 01:55:19;;;;;;;15.68;7.68;;;;;;;-4.29;67.83;100141.59;4958764;28;20425;-77
2023/02/26 01:57:48;;;;;;;15.02;7.38;;;;;;;-4.28;67.69;100139.00;4976204;28;20038;-75
2023/02/26 02:00:15;;;;;;;16.77;7.20;;;;;;;-4.21;67.48;100127.63;4974647;28;20046;-77
2023/02/26 02:02:41;;;;;;;13.52;6.57;;;;;;;-4.24;67.62;100116.34;4958155;28;20063;-77
2023/02/26 02:05:15;;;;;;;12.98;6.28;;;;;;;-4.21;67.56;100121.56;4975064;28;20034;-77
2023/02/26 02:07:41;;;;;;;12.10;7.22;;;;;;;-4.22;67.21;100112.81;4960275;28;20042;-78
2023/02/26 02:10:08;;;;;;;14.52;7.05;;;;;;;-4.09;67.36;100121.44;4990742;28;20117;-76
2023/02/26 02:12:33;;;;;;;13.80;7.80;;;;;;;-4.10;67.10;100118.81;4990474;28;20042;-77
2023/02/26 02:15:13;;;;;;;17.98;7.40;;;;;;;-4.11;66.77;100122.31;4974457;28;20078;-77
2023/02/26 02:17:57;;;;;;;12.02;6.03;;;;;;;-4.19;67.21;100125.00;4974666;28;20042;-77
2023/02/26 02:21:05;;;;;;;13.10;7.10;;;;;;;-4.24;67.63;100132.88;4974319;28;20418;-76
2023/02/26 02:24:08;;;;;;;13.10;6.73;;;;;;;-4.38;67.86;100121.66;4958501;28;20047;-76
2023/02/26 02:27:02;;;;;;;10.80;6.22;;;;;;;-4.41;68.11;100130.38;4957924;28;20054;-77
2023/02/26 02:29:52;;;;;;;13.80;5.43;;;;;;;-4.41;68.50;100130.38;4959967;28;20054;-77
2023/02/26 02:32:55;;;;;;;13.90;6.38;;;;;;;-4.38;68.30;100133.84;4974161;28;20066;-76
2023/02/26 02:35:54;;;;;;;16.77;8.35;;;;;;;-4.32;68.20;100133.81;4969885;28;20057;-76
2023/02/26 02:38:25;;;;;;;17.15;8.15;;;;;;;-4.33;68.60;100134.66;4965752;28;20109;-75
2023/02/26 02:41:04;;;;;;;16.92;8.45;;;;;;;-4.29;68.10;100131.16;4973772;28;20530;-75
2023/02/26 02:43:33;;;;;;;14.68;7.70;;;;;;;-4.42;68.80;100119.94;4957855;28;20129;-77
2023/02/26 02:46:11;;;;;;;14.30;7.03;;;;;;;-4.50;69.12;100140.00;4989781;28;20074;-75
2023/02/26 02:48:55;;;;;;;15.63;7.82;;;;;;;-4.44;69.01;100147.78;4989894;28;20046;-76
2023/02/26 02:51:36;;;;;;;14.00;7.28;;;;;;;-4.39;69.36;100146.03;4957762;28;20049;-76
2023/02/26 02:54:15;;;;;;;12.88;5.57;;;;;;;-4.33;69.35;100140.75;4989882;28;20097;-75
2023/02/26 02:56:55;;;;;;;15.70;7.70;;;;;;;-4.28;69.03;100146.81;4957381;28;20046;-76
2023/02/26 02:59:29;;;;;;;13.07;6.10;;;;;;;-4.28;69.34;100127.69;4973622;28;20093;-77
2023/02/26 03:02:07;;;;;;;18.65;7.28;;;;;;;-4.24;69.13;100143.31;4973471;28;20066;-77
2023/02/26 03:04:33;;;;;;;18.25;6.20;;;;;;;-4.16;69.00;100140.66;4957687;28;20081;-77
2023/02/26 03:06:59;;;;;;;13.00;7.57;;;;;;;-4.28;69.64;100152.03;4989803;28;20043;-75
2023/02/26 03:09:25;;;;;;;17.60;6.70;;;;;;;-4.26;69.74;100150.28;4973716;28;20632;-76
2023/02/26 03:11:50;;;;;;;15.32;8.55;;;;;;;-4.25;70.03;100167.69;4973111;28;20058;-77
2023/02/26 03:14:17;;;;;;;16.75;9.88;;;;;;;-4.22;70.08;100170.25;4957134;28;20141;-76
2023/02/26 03:17:01;;;;;;;25.52;9.18;;;;;;;-4.17;70.18;100171.13;4957534;28;20046;-76
2023/02/26 03:19:58;;;;;;;15.77;8.18;;;;;;;-4.17;70.22;100171.13;4973449;28;20104;-76
2023/02/26 03:22:47;;;;;;;12.27;6.63;;;;;;;-4.10;70.20;100160.59;4956644;28;20055;-77
2023/02/26 03:25:19;;;;;;;19.65;8.98;;;;;;;-4.01;69.93;100165.78;4974463;28;20138;-76
2023/02/26 03:28:08;;;;;;;15.68;8.48;;;;;;;-3.96;69.73;100177.03;4975325;28;20133;-76
2023/02/26 03:30:53;;;;;;;19.55;9.80;;;;;;;-3.95;70.30;100173.53;4957670;28;20047;-76
2023/02/26 03:33:33;;;;;;;32.72;8.52;;;;;;;-3.91;70.36;100178.75;4973139;28;20054;-75
2023/02/26 03:36:13;;;;;;;17.83;8.90;;;;;;;-3.86;70.06;100181.31;4956995;28;20124;-76
2023/02/26 03:39:11;;;;;;;14.45;7.40;;;;;;;-3.93;70.33;100174.41;4973318;28;20057;-76
2023/02/26 03:41:58;;;;;;;26.40;10.05;;;;;;;-3.86;70.36;100170.00;4973185;28;20050;-78
2023/02/26 03:44:31;;;;;;;20.27;9.80;;;;;;;-3.79;70.49;100167.34;4956374;28;20416;-78
2023/02/26 03:47:01;;;;;;;13.15;6.75;;;;;;;-3.75;70.57;100162.94;4973113;28;20129;-79
2023/02/26 03:49:37;;;;;;;34.92;10.85;;;;;;;-3.66;70.52;100176.78;4957267;28;20073;-78
2023/02/26 03:52:05;;;;;;;24.48;10.00;;;;;;;-3.63;70.45;100172.41;4972825;28;20055;-76
2023/02/26 03:55:06;;;;;;;22.40;10.77;;;;;;;-3.55;70.21;100174.06;4972705;28;20483;-77
2023/02/26 03:57:55;;;;;;;20.40;9.32;;;;;;;-3.54;70.05;100161.88;4970811;28;20205;-77
2023/02/26 04:00:38;;;;;;;16.88;9.30;;;;;;;-3.51;70.03;100172.31;4958380;28;20141;-80
2023/02/26 04:03:09;;;;;;;;;;;;;;;-3.55;70.15;100181.06;4976527;28;20050;-76
2023/02/26 04:05:39;;;;;;;12.48;5.97;;;;;;;-3.61;70.69;100181.09;4975972;28;20451;-79
2023/02/26 04:08:05;;;;;;;21.52;8.80;;;;;;;-3.66;70.75;100179.38;4976066;28;20421;-77
2023/02/26 04:10:44;;;;;;;14.25;7.97;;;;;;;-3.62;70.72;100184.59;4975804;28;20054;-78
2023/02/26 04:13:10;;;;;;;16.08;8.40;;;;;;;-3.59;70.85;100181.97;4976026;28;20047;-79
2023/02/26 04:15:36;;;;;;;13.60;7.53;;;;;;;-3.52;70.75;100181.03;4975762;28;20559;-81
2023/02/26 04:18:05;;;;;;;13.63;7.65;;;;;;;-3.46;70.47;100178.34;4958842;28;20129;-75
2023/02/26 04:20:31;;;;;;;19.65;7.78;;;;;;;-3.35;70.11;100193.91;4975423;28;20045;-75
2023/02/26 04:22:57;;;;;;;14.38;7.82;;;;;;;-3.38;69.96;100189.59;4974893;28;20042;-78
2023/02/26 04:25:23;;;;;;;18.67;9.23;;;;;;;-3.29;70.26;100186.03;4972629;28;20133;-77
2023/02/26 04:27:50;;;;;;;18.65;8.40;;;;;;;-3.27;70.08;100190.38;4956364;28;20495;-78
2023/02/26 04:30:17;;;;;;;15.55;7.88;;;;;;;-3.15;70.36;100198.97;4955889;28;20049;-75
2023/02/26 04:32:44;;;;;;;14.77;7.85;;;;;;;-3.04;69.50;100199.72;4971927;28;20050;-77
2023/02/26 04:35:13;;;;;;;;;;;;;;;-2.89;69.54;100206.53;4973013;28;20055;-76
2023/02/26 04:37:40;;;;;;;16.63;8.02;;;;;;;-2.96;69.46;100197.88;4956173;28;20513;-77
2023/02/26 04:40:07;;;;;;;21.75;8.70;;;;;;;-2.91;69.78;100210.91;4956247;28;20486;-78
2023/02/26 04:42:33;;;;;;;16.83;7.63;;;;;;;-2.88;69.46;100206.50;4956200;28;20046;-76
2023/02/26 04:44:59;;;;;;;24.90;6.72;;;;;;;-2.82;69.42;100209.06;4940228;28;20050;-77
2023/02/26 04:47:26;;;;;;;18.80;8.35;;;;;;;-2.75;69.42;100208.06;4956232;28;20097;-79
2023/02/26 04:49:51;;;;;;;23.73;9.73;;;;;;;-2.47;68.82;100205.13;4972279;28;20466;-78
2023/02/26 04:52:18;;;;;;;30.70;8.07;;;;;;;-2.41;68.49;100207.63;4956077;28;20039;-78
2023/02/26 04:54:44;;;;;;;14.63;7.68;;;;;;;-2.14;67.77;100200.28;4956095;28;20101;-78
2023/02/26 04:57:13;;;;;;;17.55;7.63;;;;;;;-2.14;66.78;100189.81;4957159;28;20051;-79
2023/02/26 04:59:39;;;;;;;13.07;6.85;;;;;;;-2.10;66.72;100207.25;4943762;28;20055;-76
2023/02/26 05:02:05;;;;;;;19.55;7.47;;;;;;;-2.22;67.06;100209.16;4959382;28;20145;-77
2023/02/26 05:04:32;;;;;;;9.40;4.95;;;;;;;-2.07;66.90;100217.66;4945131;28;20058;-80
2023/02/26 05:06:59;;;;;;;12.05;6.32;;;;;;;-2.10;67.18;100223.81;4943298;28;20088;-78
2023/02/26 05:09:25;;;;;;;14.07;6.88;;;;;;;-2.15;67.34;100211.66;4943468;28;20039;-78
2023/02/26 05:11:51;;;;;;;11.63;6.55;;;;;;;-2.10;67.45;100220.34;4992879;28;20093;-76
2023/02/26 05:14:17;;;;;;;18.38;7.45;;;;;;;-2.15;67.59;100223.00;4995901;28;20505;-79
2023/02/26 05:16:46;;;;;;;16.02;6.85;;;;;;;-1.88;67.43;100224.38;4995295;28;20057;-78
2023/02/26 05:19:13;;;;;;;18.35;7.57;;;;;;;-1.68;67.22;100225.81;4977602;28;20560;-76
2023/02/26 12:56:40;;;;;;;12.77;6.70;;;;;;;-0.92;58.06;100224.44;4897191;29;20203;-80
2023/02/26 12:59:06;;;;;;;42.78;7.18;;;;;;;-1.00;58.14;100239.47;4894830;29;20529;-80
2023/02/26 13:02:07;;;;;;;14.23;7.55;;;;;;;-1.28;58.94;100246.97;4913003;29;20055;-79
2023/02/26 13:05:00;;;;;;;18.83;8.13;;;;;;;-1.32;59.82;100242.66;4881970;29;20087;-78
2023/02/26 13:08:02;;;;;;;17.77;7.32;;;;;;;-1.55;60.24;100243.91;4913207;29;20044;-77
2023/02/26 13:10:28;;;;;;;35.22;7.45;;;;;;;-1.64;60.26;100243.22;4903507;29;20056;-78
2023/02/26 13:13:12;;;;;;;14.75;8.65;;;;;;;-1.57;60.54;100239.59;4896655;29;20080;-77
2023/02/26 13:15:44;;;;;;;16.60;8.02;;;;;;;-1.57;60.25;100250.97;4911830;29;20059;-76
2023/02/26 13:18:18;;;;;;;15.52;7.32;;;;;;;-1.59;60.01;100234.38;4910920;29;20459;-78
2023/02/26 13:21:05;;;;;;;18.27;8.40;;;;;;;-1.54;60.20;100239.56;4896992;29;20084;-78
2023/02/26 13:23:54;;;;;;;15.55;7.90;;;;;;;-1.74;60.53;100227.63;4896861;29;20076;-78
2023/02/26 13:26:24;;;;;;;16.25;7.57;;;;;;;-1.84;60.51;100223.44;4881215;29;20036;-80
2023/02/26 13:29:20;;;;;;;15.88;7.50;;;;;;;-1.87;61.31;100241.81;4896742;29;20642;-77
2023/02/26 13:32:45;;;;;;;20.25;8.15;;;;;;;-1.97;61.75;100229.72;4897082;29;20396;-77
2023/02/26 13:35:24;;;;;;;13.50;6.63;;;;;;;-1.77;65.00;100243.41;4903860;29;20061;-79
2023/02/26 13:37:57;;;;;;;16.55;8.30;;;;;;;-1.69;62.22;100237.16;4889330;29;20045;-78
2023/02/26 13:40:49;;;;;;;10.98;6.70;;;;;;;-1.78;62.03;100235.56;4892800;29;20487;-78
2023/02/26 13:43:40;;;;;;;9.98;5.57;;;;;;;-1.95;62.22;100225.34;4896006;29;20507;-79
2023/02/26 13:46:32;;;;;;;12.77;7.13;;;;;;;-2.03;62.68;100230.69;4895519;29;20047;-80
2023/02/26 13:49:12;;;;;;;10.63;6.20;;;;;;;-2.00;62.94;100221.91;4880087;29;20067;-78
2023/02/26 13:51:47;;;;;;;10.70;5.75;;;;;;;-1.96;62.67;100236.69;4911044;29;20048;-80
2023/02/26 13:54:13;;;;;;;11.25;5.13;;;;;;;-2.16;63.60;100221.28;4906458;29;20063;-78
2023/02/26 13:56:48;;;;;;;12.30;5.57;;;;;;;-2.23;63.58;100233.56;4933576;29;20142;-78
2023/02/26 13:59:29;;;;;;;9.52;5.30;;;;;;;-2.24;63.75;100231.00;4949995;29;20047;-77
2023/02/26 14:02:01;;;;;;;12.70;7.22;;;;;;;-2.31;64.70;100213.63;4949570;29;20051;-78
2023/02/26 14:04:32;;;;;;;11.52;5.80;;;;;;;-2.27;64.31;100210.09;4933768;29;20139;-78
2023/02/26 14:06:59;;;;;;;13.85;6.53;;;;;;;-2.29;64.51;100202.25;4933471;29;20058;-79
2023/02/26 14:09:36;;;;;;;16.38;7.70;;;;;;;-2.25;64.63;100193.47;4918092;29;20047;-78
2023/02/26 14:12:04;;;;;;;12.70;6.90;;;;;;;-2.25;64.56;100203.94;4933891;29;20083;-78
2023/02/26 14:14:33;;;;;;;13.25;5.90;;;;;;;-2.23;64.78;100191.69;4934017;29;20142;-79
2023/02/26 14:17:08;;;;;;;17.63;7.88;;;;;;;-2.25;65.02;100183.00;4933828;29;20094;-77
2023/02/26 14:19:44;;;;;;;13.73;7.40;;;;;;;-2.21;65.02;100189.91;4933790;29;20043;-78
2023/02/26 14:22:29;;;;;;;25.73;8.27;;;;;;;-2.26;65.00;100172.53;4933830;29;20111;-78
2023/02/26 14:25:30;;;;;;;10.05;6.75;;;;;;;-2.18;64.73;100173.31;4933789;29;20142;-78
2023/02/26 14:28:25;;;;;;;16.20;7.95;;;;;;;-2.22;65.07;100188.19;4935038;29;20048;-78
2023/02/26 14:30:58;;;;;;;16.80;8.00;;;;;;;-2.24;64.52;100187.34;4949703;29;20519;-78
2023/02/26 14:33:30;;;;;;;10.27;6.65;;;;;;;-2.16;64.55;100204.69;4934994;29;20046;-77
2023/02/26 14:35:56;;;;;;;18.08;8.48;;;;;;;-2.16;64.84;100202.94;4933636;29;20577;-78
2023/02/26 14:38:29;;;;;;;14.57;7.25;;;;;;;-2.09;64.53;100188.88;4934426;29;20082;-77
2023/02/26 14:41:16;;;;;;;17.70;7.85;;;;;;;-2.03;64.69;100186.16;4934473;29;20056;-77
2023/02/26 14:43:52;;;;;;;14.40;7.85;;;;;;;-2.10;64.68;100173.19;4933393;29;20047;-77
2023/02/26 14:46:18;;;;;;;11.88;6.72;;;;;;;-2.06;64.29;100153.91;4917529;29;20502;-78
2023/02/26 14:48:46;;;;;;;14.77;8.35;;;;;;;-2.05;64.79;100153.00;4917504;29;20054;-76
2023/02/26 14:51:45;;;;;;;14.63;7.07;;;;;;;-2.01;64.29;100144.22;4933159;29;20060;-78
2023/02/26 14:54:21;;;;;;;14.55;7.63;;;;;;;-1.97;64.47;100145.88;4928184;29;20508;-79
2023/02/26 14:56:53;;;;;;;15.63;7.20;;;;;;;-2.06;64.55;100152.16;4935928;28;20090;-79
2023/02/26 14:59:45;;;;;;;11.30;6.78;;;;;;;-2.03;64.32;100140.75;4959164;28;20059;-77
2023/02/26 15:02:23;;;;;;;12.73;6.70;;;;;;;-2.09;64.61;100148.72;4950707;29;20076;-78
2023/02/26 15:08:32;;;;;;;19.60;7.07;;;;;;;-2.12;64.47;100130.41;4934840;29;20043;-78
2023/02/26 15:11:08;;;;;;;11.95;7.18;;;;;;;-2.13;64.86;100133.94;4919247;29;20074;-77
2023/02/26 15:13:46;;;;;;;12.15;6.63;;;;;;;-2.21;64.93;100129.69;4936285;29;20062;-76
2023/02/26 15:16:34;;;;;;;10.55;6.07;;;;;;;-2.12;64.34;100140.91;4950788;29;20071;-79
2023/02/26 15:19:34;;;;;;;13.65;6.95;;;;;;;-2.14;64.49;100132.19;4934767;29;20525;-77
2023/02/26 15:22:09;;;;;;;12.10;7.35;;;;;;;-2.16;64.52;100129.59;4934826;29;20175;-78
2023/02/26 15:24:39;;;;;;;15.90;6.68;;;;;;;-2.13;64.18;100144.41;4950699;29;20095;-78
2023/02/26 15:27:08;;;;;;;;;;;;;;;-2.16;64.43;100170.66;4935286;29;20047;-79
2023/02/26 15:29:37;;;;;;;10.50;5.53;;;;;;;-2.29;64.23;100155.13;4934456;29;19918;-78
2023/02/26 15:32:21;;;;;;;12.57;6.03;;;;;;;-2.36;64.63;100142.16;4918639;29;20139;-79
2023/02/26 15:34:56;;;;;;;14.63;6.47;;;;;;;-2.28;64.34;100135.91;4934588;28;20099;-77
2023/02/26 15:37:27;;;;;;;12.52;7.07;;;;;;;-2.25;63.99;100130.63;4914582;29;20490;-77
2023/02/26 15:39:53;;;;;;;9.50;5.40;;;;;;;-2.32;64.13;100143.81;4915441;29;20082;-77
2023/02/26 15:42:31;;;;;;;14.40;7.65;;;;;;;-2.29;63.85;100134.16;4931333;29;20188;-77
2023/02/26 15:45:00;;;;;;;15.90;7.50;;;;;;;-2.34;64.54;100146.44;4932585;29;20043;-78
2023/02/26 15:47:29;;;;;;;10.35;5.72;;;;;;;-2.32;64.29;100131.59;4880043;29;20116;-79
2023/02/26 15:49:57;;;;;;;11.35;6.38;;;;;;;-2.45;64.77;100133.50;4913289;29;20063;-76
2023/02/26 15:52:26;;;;;;;13.55;6.43;;;;;;;-2.49;64.34;100144.06;4880902;29;20192;-77
2023/02/26 15:55:13;;;;;;;13.18;5.75;;;;;;;-2.38;64.36;100134.28;4880767;29;20084;-77
2023/02/26 15:57:44;;;;;;;30.50;7.85;;;;;;;-2.51;64.23;100138.00;4912157;29;20099;-79
2023/02/26 16:00:23;;;;;;;21.90;7.50;;;;;;;-2.50;64.67;100137.09;4896407;29;20071;-77
2023/02/26 16:02:49;;;;;;;16.38;7.45;;;;;;;-2.47;64.28;100139.69;4896497;29;20296;-78
2023/02/26 16:05:18;;;;;;;18.83;8.00;;;;;;;-2.47;64.46;100140.53;4880965;29;20083;-79
2023/02/26 16:07:45;;;;;;;16.55;7.15;;;;;;;-2.56;64.42;100129.31;4896495;29;20060;-78
2023/02/26 16:10:37;;;;;;;14.75;7.72;;;;;;;-2.54;64.24;100111.84;4912116;29;20145;-77
2023/02/26 16:13:04;;;;;;;14.68;7.13;;;;;;;-2.61;64.44;100110.22;4896400;29;20040;-78
2023/02/26 16:15:33;;;;;;;19.13;7.72;;;;;;;-2.67;65.26;100110.28;4923823;29;20051;-77
2023/02/26 16:18:06;;;;;;;13.48;7.72;;;;;;;-2.70;65.27;100119.91;4932289;29;20053;-78
2023/02/26 16:20:41;;;;;;;12.70;6.07;;;;;;;-2.63;64.92;100122.44;4932094;29;20043;-78
2023/02/26 16:23:36;;;;;;;12.02;6.25;;;;;;;-2.58;64.89;100137.22;4928925;29;20060;-78
2023/02/26 16:26:13;;;;;;;11.02;6.32;;;;;;;-2.52;64.28;100110.06;4913262;29;20234;-76
2023/02/26 16:28:45;;;;;;;11.55;6.20;;;;;;;-2.57;64.62;100106.66;4929112;29;20048;-79
2023/02/26 16:31:23;;;;;;;11.38;6.05;;;;;;;-2.59;64.39;100109.31;4913661;29;20082;-78
2023/02/26 16:34:03;;;;;;;13.63;7.40;;;;;;;-2.60;64.90;100101.47;4913848;29;20075;-78
2023/02/26 16:36:41;;;;;;;13.77;7.82;;;;;;;-2.54;64.56;100090.91;4897637;29;20048;-77
2023/02/26 16:39:07;;;;;;;16.40;5.10;;;;;;;-2.55;64.33;100089.19;4897476;29;20092;-78
2023/02/26 16:41:36;;;;;;;12.25;6.60;;;;;;;-2.51;64.39;100096.97;4912752;29;20127;-77
2023/02/26 16:44:24;;;;;;;;;;;;;;;-2.48;64.40;100082.97;4929562;29;20415;-77
2023/02/26 16:46:53;;;;;;;13.98;6.72;;;;;;;-2.56;64.21;100071.72;4927538;29;20331;-78
2023/02/26 16:49:32;;;;;;;7.75;4.60;;;;;;;-2.55;64.41;100052.53;4911708;29;20578;-77
2023/02/26 16:51:59;;;;;;;9.75;4.63;;;;;;;-2.55;64.22;100068.25;4912601;29;20442;-78
2023/02/26 16:54:39;;;;;;;15.40;7.22;;;;;;;-2.55;64.56;100073.50;4930666;29;20056;-79
2023/02/26 16:57:07;;;;;;;12.82;7.10;;;;;;;-2.63;64.54;100070.09;4923574;29;20064;-78
2023/02/26 16:59:38;;;;;;;13.73;6.70;;;;;;;-2.58;64.64;100081.38;4949842;29;20155;-78
2023/02/26 17:02:14;;;;;;;17.83;5.68;;;;;;;-2.53;64.50;100071.69;4934229;29;20110;-79
2023/02/26 17:04:44;;;;;;;9.88;5.85;;;;;;;-2.42;63.93;100058.44;4949841;29;20142;-78
2023/02/26 17:07:31;;;;;;;14.43;7.00;;;;;;;-2.41;63.73;100066.25;4918226;29;20061;-78
2023/02/26 17:10:15;;;;;;;9.38;6.18;;;;;;;-2.46;64.36;100068.09;4949926;29;20564;-78
2023/02/26 17:12:45;;;;;;;10.27;6.13;;;;;;;-2.53;63.99;100058.59;4933850;29;20052;-77
2023/02/26 17:15:31;;;;;;;12.68;6.75;;;;;;;-2.53;64.45;100067.31;4949900;29;20050;-78
2023/02/26 17:17:58;;;;;;;17.23;6.90;;;;;;;-2.56;64.24;100074.34;4918807;29;20082;-77
2023/02/26 17:20:30;;;;;;;11.68;6.35;;;;;;;-2.58;64.21;100081.38;4935118;28;20053;-79
2023/02/26 17:22:58;;;;;;;9.95;5.72;;;;;;;-2.65;64.12;100098.06;4919054;29;20569;-79
2023/02/26 17:25:28;;;;;;;10.77;6.63;;;;;;;-2.60;64.55;100070.91;4936209;29;20043;-79
2023/02/26 17:27:55;;;;;;;;;;;;;;;-2.59;64.41;100083.13;4935949;29;20275;-79
2023/02/26 17:30:23;;;;;;;11.35;5.70;;;;;;;-2.55;64.32;100081.34;4951452;29;19918;-79
2023/02/26 17:32:49;;;;;;;8.07;4.70;;;;;;;-2.54;64.07;100070.84;4951081;28;20043;-77
2023/02/26 17:35:19;;;;;;;10.07;5.85;;;;;;;-2.52;64.06;100062.94;4935050;29;20153;-77
2023/02/26 17:37:46;;;;;;;15.68;6.30;;;;;;;-2.49;64.24;100078.59;4934708;29;20039;-78
2023/02/26 17:40:37;;;;;;;12.20;6.43;;;;;;;-2.46;64.02;100073.34;4935170;29;20047;-77
2023/02/26 17:43:05;;;;;;;9.45;5.78;;;;;;;-2.48;64.30;100065.50;4931696;29;20056;-77
2023/02/26 17:45:38;;;;;;;10.75;6.05;;;;;;;-2.42;64.41;100074.16;4934451;29;20052;-77
2023/02/26 17:48:07;;;;;;;9.02;5.80;;;;;;;-2.46;64.00;100092.53;4934415;29;20062;-79
2023/02/26 17:50:55;;;;;;;9.68;6.13;;;;;;;-2.42;63.71;100085.47;4934656;29;20047;-77
2023/02/26 17:53:26;;;;;;;8.35;5.38;;;;;;;-2.38;64.07;100094.16;4950499;29;20058;-78
2023/02/26 17:55:53;;;;;;;9.73;5.93;;;;;;;-2.42;63.86;100098.56;4918666;29;20131;-77
2023/02/26 17:58:33;;;;;;;11.48;6.78;;;;;;;-2.36;64.56;100108.09;4950342;28;20048;-78
2023/02/26 18:01:02;;;;;;;9.13;6.00;;;;;;;-2.35;64.61;100123.78;4950574;28;20062;-78
2023/02/26 18:03:28;;;;;;;11.43;5.68;;;;;;;-2.32;64.33;100110.66;4933790;29;20151;-78
2023/02/26 18:05:55;;;;;;;19.33;6.85;;;;;;;-2.26;64.41;100121.03;4934337;29;20138;-77
2023/02/26 18:08:24;;;;;;;10.70;5.80;;;;;;;-2.31;64.30;100120.22;4918408;29;20074;-76
2023/02/26 18:10:51;;;;;;;11.60;6.63;;;;;;;-2.27;64.32;100105.34;4934265;29;20506;-77
2023/02/26 18:13:19;;;;;;;13.88;6.65;;;;;;;-2.23;64.43;100079.06;4933904;29;20106;-77
2023/02/26 18:15:46;;;;;;;9.30;5.72;;;;;;;-2.18;64.91;100062.41;4934170;29;20510;-78
2023/02/26 18:18:13;;;;;;;11.05;6.82;;;;;;;-2.10;64.45;100063.16;4918286;29;20043;-77
2023/02/26 18:20:40;;;;;;;16.55;6.97;;;;;;;-2.07;64.52;100058.75;4950744;28;20063;-78
2023/02/26 18:23:12;;;;;;;12.00;6.55;;;;;;;-2.17;65.28;100057.16;4935171;29;20422;-78
2023/02/26 18:25:40;;;;;;;10.52;6.88;;;;;;;-2.11;64.81;100035.22;4936854;28;20597;-78
2023/02/26 18:28:10;;;;;;;13.55;5.78;;;;;;;-2.08;65.02;100043.03;4952040;29;20102;-78
2023/02/26 18:30:39;;;;;;;10.52;4.97;;;;;;;-2.12;64.99;100025.66;4951514;29;20075;-78
2023/02/26 18:33:05;;;;;;;9.27;5.60;;;;;;;-2.15;64.95;100009.97;4935692;28;20039;-78
2023/02/26 18:35:32;;;;;;;20.52;7.68;;;;;;;-2.14;64.99;100027.41;4950796;29;20098;-77
2023/02/26 18:37:58;;;;;;;10.68;5.65;;;;;;;-2.18;65.04;100012.66;4935450;29;20056;-77
2023/02/26 18:40:25;;;;;;;10.23;6.20;;;;;;;-2.29;65.44;100013.72;4950808;29;20152;-77
2023/02/26 18:42:52;;;;;;;14.77;6.30;;;;;;;-2.30;65.33;99996.25;4936640;29;20055;-75
2023/02/26 18:45:18;;;;;;;11.30;5.95;;;;;;;-2.32;65.62;100007.66;4919831;29;20047;-77
2023/02/26 18:47:45;;;;;;;12.48;6.28;;;;;;;-2.29;65.42;100018.97;4935364;29;20048;-76
2023/02/26 18:50:13;;;;;;;14.02;6.38;;;;;;;-2.33;65.55;100000.69;4935379;29;20065;-77
2023/02/26 18:52:39;;;;;;;13.57;7.18;;;;;;;-2.29;65.51;100007.63;4951220;29;20072;-77
2023/02/26 18:55:05;;;;;;;13.70;6.20;;;;;;;-2.34;65.48;99981.50;4918857;29;20059;-77
2023/02/26 18:57:32;;;;;;;9.75;5.72;;;;;;;-2.41;65.95;99969.38;4935107;28;20051;-76
2023/02/26 18:59:58;;;;;;;5.40;4.63;;;;;;;-2.42;66.15;99972.91;4934975;29;20043;-77
2023/02/26 19:02:25;;;;;;;9.85;4.78;;;;;;;-2.37;65.90;99955.38;4935747;29;20048;-77
2023/02/26 19:04:51;;;;;;;11.27;6.50;;;;;;;-2.52;66.07;99959.13;4903706;29;20134;-77
2023/02/26 19:07:17;;;;;;;22.52;5.97;;;;;;;-2.51;66.20;99946.91;4916230;29;20058;-78
2023/02/26 19:09:43;;;;;;;17.77;7.32;;;;;;;-2.58;67.01;99930.44;4917324;29;20051;-77
2023/02/26 19:12:13;;;;;;;9.48;5.93;;;;;;;-2.56;66.90;99935.63;4931782;29;20111;-77
2023/02/26 19:14:39;;;;;;;10.82;5.57;;;;;;;-2.58;66.99;99921.72;4917050;29;20078;-76
2023/02/26 19:17:04;;;;;;;12.98;6.63;;;;;;;-2.57;67.04;99932.16;4931142;29;20484;-77
2023/02/26 19:19:31;;;;;;;10.95;5.55;;;;;;;-2.62;67.11;99920.06;4931413;29;20103;-77
2023/02/26 19:21:57;;;;;;;9.57;5.72;;;;;;;-2.71;67.56;99907.97;4915919;29;20056;-76
2023/02/26 19:24:23;;;;;;;12.13;6.65;;;;;;;-2.69;67.89;99916.66;4916286;29;20039;-78
2023/02/26 19:26:49;;;;;;;14.90;5.50;;;;;;;-2.75;67.73;99903.69;4916885;29;20083;-76
2023/02/26 19:29:18;;;;;;;13.40;5.97;;;;;;;-2.74;68.25;99929.84;4900189;29;20046;-77
2023/02/26 19:31:44;;;;;;;9.57;5.10;;;;;;;-2.84;68.05;99920.41;4915772;29;20047;-76